»·PEaware :: N508DB KALW-8W5

N508DB :: KALW-8W5

FLIGHT INFORMATION

Flight Status: Arrived
Operator: Privately registered:
United States
More flights under this callsign
Pilot: Chuck O. (4337)
Aircraft: Unknown
(LEG2)
More flights by this aircraft type
Origin: KALW Walla Walla Regl
United States
Destination: 8W5 Apex Airpark
United States
More flights between these airports :: More routes between these airports
Route: LYLES V520 PSC V204 YKM V4 SEA
File this flight plan on PilotEdge
Remarks: ABC WA LEG 22
Altitude:
(Current/Filed)
10,500ft
Speed:
(Current/Filed)
220kts
Departed: 26-Jun-20 12:49 PM
Arrived: 26-Jun-20 02:00 PM
Distance/Time
Traveled:
205nm/1:11
Distance/Time
To Go:
Arrived

Flight Plot

Page will automatically refresh every two minutes.

Flight plan parsing failed; only flown route is shown


Map Options




Map Legend


Flown Route
Filed Route
Departure Airport
Arrival Airport
Navaid (VOR, NDB)
Fix

Horizontal Profiles

Position Reports

Time Latitude Longitude Heading Altitude Ground
Speed
26-Jun-20 12:46 46.096027 -118.277477 313 1194ft 3kts
26-Jun-20 12:47 46.098623 -118.276247 353 1194ft 0kts
26-Jun-20 12:48 46.091305 -118.285386 213 1242ft 103kts
26-Jun-20 12:49 46.094519 -118.328614 315 2036ft 174kts
26-Jun-20 12:50 46.115676 -118.385428 280 3522ft 157kts
26-Jun-20 12:51 46.124978 -118.441562 284 4955ft 149kts
26-Jun-20 12:52 46.137448 -118.504696 284 5790ft 175kts
26-Jun-20 12:53 46.151246 -118.573521 284 6803ft 174kts
26-Jun-20 12:54 46.164366 -118.638109 285 8060ft 158kts
26-Jun-20 12:55 46.177103 -118.694694 285 9347ft 140kts
26-Jun-20 12:56 46.189954 -118.752504 286 9988ft 162kts
26-Jun-20 12:57 46.204327 -118.817288 286 10471ft 180kts
26-Jun-20 12:58 46.220686 -118.891301 286 10469ft 203kts
26-Jun-20 12:59 46.238270 -118.971223 286 10464ft 212kts
26-Jun-20 13:00 46.256174 -119.053076 286 10496ft 214kts
26-Jun-20 13:01 46.274317 -119.135727 287 10498ft 216kts
26-Jun-20 13:02 46.293357 -119.218776 287 10490ft 217kts
26-Jun-20 13:03 46.312280 -119.301863 287 10479ft 218kts
26-Jun-20 13:04 46.331175 -119.385215 287 10478ft 217kts
26-Jun-20 13:05 46.349944 -119.468365 287 10479ft 217kts
26-Jun-20 13:06 46.368711 -119.551856 287 10481ft 217kts
26-Jun-20 13:07 46.387315 -119.634938 287 10484ft 217kts
26-Jun-20 13:08 46.405879 -119.718167 287 10487ft 217kts
26-Jun-20 13:09 46.424403 -119.801548 287 10490ft 217kts
26-Jun-20 13:10 46.442997 -119.884949 287 10492ft 217kts
26-Jun-20 13:11 46.462156 -119.968069 287 10495ft 217kts
26-Jun-20 13:12 46.481203 -120.051292 287 10498ft 216kts
26-Jun-20 13:13 46.500089 -120.134183 287 10501ft 216kts
26-Jun-20 13:14 46.518938 -120.217243 287 10504ft 216kts
26-Jun-20 13:15 46.537624 -120.299904 287 10505ft 215kts
26-Jun-20 13:16 46.556251 -120.382630 287 10507ft 215kts
26-Jun-20 13:17 46.578868 -120.462587 303 10511ft 215kts
26-Jun-20 13:18 46.613008 -120.534030 303 10500ft 215kts
26-Jun-20 13:19 46.647204 -120.605704 303 10503ft 215kts
26-Jun-20 13:20 46.681201 -120.677121 303 10510ft 214kts
26-Jun-20 13:21 46.715009 -120.748315 303 10519ft 213kts
26-Jun-20 13:22 46.748828 -120.819672 303 10530ft 213kts
26-Jun-20 13:23 46.782497 -120.890887 303 10541ft 212kts
26-Jun-20 13:24 46.816026 -120.961993 303 10553ft 212kts
26-Jun-20 13:25 46.849424 -121.033016 303 10566ft 212kts
26-Jun-20 13:26 46.882717 -121.103999 303 10582ft 211kts
26-Jun-20 13:27 46.915916 -121.174963 303 10602ft 211kts
26-Jun-20 13:28 46.949037 -121.245939 302 10625ft 210kts
26-Jun-20 13:29 46.982097 -121.316979 302 10531ft 215kts
26-Jun-20 13:30 47.015593 -121.389117 302 10534ft 212kts
26-Jun-20 13:31 47.048586 -121.460375 302 10537ft 211kts
26-Jun-20 13:32 47.081363 -121.531348 302 10538ft 210kts
26-Jun-20 13:33 47.114100 -121.602431 302 10535ft 209kts
26-Jun-20 13:34 47.146719 -121.673439 302 10531ft 209kts
26-Jun-20 13:35 47.177732 -121.741121 302 10526ft 209kts
26-Jun-20 13:36 47.208445 -121.808310 302 10518ft 209kts
26-Jun-20 13:37 47.240855 -121.879395 302 10511ft 209kts
26-Jun-20 13:38 47.269692 -121.942797 302 10506ft 209kts
26-Jun-20 13:39 47.301980 -122.013958 302 10501ft 208kts
26-Jun-20 13:40 47.334008 -122.084727 302 10497ft 207kts
26-Jun-20 13:41 47.366002 -122.155531 302 10494ft 207kts
26-Jun-20 13:43 47.397903 -122.226327 301 10495ft 206kts
26-Jun-20 13:44 47.429651 -122.296996 301 10514ft 206kts
26-Jun-20 13:45 47.463974 -122.364808 306 10517ft 206kts
26-Jun-20 13:46 47.499440 -122.431897 305 10510ft 207kts
26-Jun-20 13:47 47.534832 -122.499510 305 10506ft 207kts
26-Jun-20 13:48 47.570137 -122.567180 305 10500ft 207kts
26-Jun-20 13:49 47.605042 -122.634223 306 10500ft 207kts
26-Jun-20 13:50 47.658173 -122.668962 339 9952ft 192kts
26-Jun-20 13:51 47.698105 -122.682599 5 8194ft 199kts
26-Jun-20 13:52 47.745810 -122.663460 12 6479ft 189kts
26-Jun-20 13:53 47.792797 -122.666622 292 4479ft 184kts
26-Jun-20 13:54 47.775079 -122.736301 224 2610ft 187kts
26-Jun-20 13:55 47.738681 -122.773657 211 2283ft 152kts
26-Jun-20 13:56 47.696525 -122.769309 136 1297ft 167kts
26-Jun-20 13:56 47.681379 -122.730827 169 1108ft 115kts
26-Jun-20 13:58 47.651645 -122.729067 205 623ft 93kts
26-Jun-20 13:59 47.666380 -122.737050 25 971ft 92kts
26-Jun-20 13:59 47.656229 -122.733062 73 505ft 3kts
26-Jun-20 14:01 47.656403 -122.732866 22 505ft 0kts

Navigation Log

Ident Type
Flight plan parsing failed, navigation log unavailable